sensor_id;sensor_type;location;lat;lon;timestamp;P1;durP1;ratioP1;P2;durP2;ratioP2
12328;SDS011;6230;52.390;10.256;2023-03-01T00:01:15;10.63;;;7.50;;
12328;SDS011;6230;52.390;10.256;2023-03-01T00:03:42;9.07;;;7.00;;
12328;SDS011;6230;52.390;10.256;2023-03-01T00:06:08;9.63;;;7.30;;
12328;SDS011;6230;52.390;10.256;2023-03-01T00:08:34;10.70;;;8.17;;
12328;SDS011;6230;52.390;10.256;2023-03-01T00:11:05;10.00;;;7.67;;
12328;SDS011;6230;52.390;10.256;2023-03-01T00:13:33;9.80;;;7.30;;
12328;SDS011;6230;52.390;10.256;2023-03-01T00:16:01;12.27;;;8.10;;
12328;SDS011;6230;52.390;10.256;2023-03-01T00:18:28;9.73;;;8.30;;
12328;SDS011;6230;52.390;10.256;2023-03-01T00:20:54;10.77;;;8.77;;
12328;SDS011;6230;52.390;10.256;2023-03-01T00:23:21;11.23;;;8.10;;
12328;SDS011;6230;52.390;10.256;2023-03-01T00:25:47;9.10;;;7.60;;
12328;SDS011;6230;52.390;10.256;2023-03-01T00:28:13;12.00;;;8.30;;
12328;SDS011;6230;52.390;10.256;2023-03-01T00:30:39;14.10;;;9.13;;
12328;SDS011;6230;52.390;10.256;2023-03-01T00:33:04;11.13;;;8.80;;
12328;SDS011;6230;52.390;10.256;2023-03-01T00:35:31;11.93;;;9.13;;
12328;SDS011;6230;52.390;10.256;2023-03-01T00:37:57;10.43;;;7.90;;
12328;SDS011;6230;52.390;10.256;2023-03-01T00:40:23;11.60;;;8.30;;
12328;SDS011;6230;52.390;10.256;2023-03-01T00:42:49;10.00;;;8.10;;
12328;SDS011;6230;52.390;10.256;2023-03-01T00:45:15;10.63;;;7.93;;
12328;SDS011;6230;52.390;10.256;2023-03-01T00:47:41;11.20;;;7.83;;
12328;SDS011;6230;52.390;10.256;2023-03-01T00:50:07;10.17;;;8.10;;
12328;SDS011;6230;52.390;10.256;2023-03-01T00:52:33;12.13;;;8.37;;
12328;SDS011;6230;52.390;10.256;2023-03-01T00:54:59;11.17;;;8.37;;
12328;SDS011;6230;52.390;10.256;2023-03-01T00:57:24;11.03;;;8.03;;
12328;SDS011;6230;52.390;10.256;2023-03-01T00:59:50;9.73;;;7.43;;
12328;SDS011;6230;52.390;10.256;2023-03-01T01:02:17;8.97;;;7.80;;
12328;SDS011;6230;52.390;10.256;2023-03-01T01:04:43;10.67;;;8.33;;
12328;SDS011;6230;52.390;10.256;2023-03-01T01:07:09;9.80;;;7.93;;
12328;SDS011;6230;52.390;10.256;2023-03-01T01:09:35;10.77;;;8.60;;
12328;SDS011;6230;52.390;10.256;2023-03-01T01:12:01;11.57;;;9.13;;
12328;SDS011;6230;52.390;10.256;2023-03-01T01:14:27;11.73;;;8.43;;
12328;SDS011;6230;52.390;10.256;2023-03-01T01:16:53;10.20;;;7.93;;
12328;SDS011;6230;52.390;10.256;2023-03-01T01:19:19;10.50;;;8.03;;
12328;SDS011;6230;52.390;10.256;2023-03-01T01:21:44;10.23;;;8.23;;
12328;SDS011;6230;52.390;10.256;2023-03-01T01:24:12;11.17;;;8.53;;
12328;SDS011;6230;52.390;10.256;2023-03-01T01:26:37;10.63;;;7.93;;
12328;SDS011;6230;52.390;10.256;2023-03-01T01:29:03;12.37;;;8.57;;
12328;SDS011;6230;52.390;10.256;2023-03-01T01:31:29;10.43;;;8.07;;
12328;SDS011;6230;52.390;10.256;2023-03-01T01:33:56;8.93;;;7.47;;
12328;SDS011;6230;52.390;10.256;2023-03-01T01:36:23;10.53;;;8.00;;
12328;SDS011;6230;52.390;10.256;2023-03-01T01:38:49;10.53;;;7.40;;
12328;SDS011;6230;52.390;10.256;2023-03-01T01:41:14;11.40;;;8.00;;
12328;SDS011;6230;52.390;10.256;2023-03-01T01:43:41;11.17;;;8.40;;
12328;SDS011;6230;52.390;10.256;2023-03-01T01:48:57;10.67;;;8.27;;
12328;SDS011;6230;52.390;10.256;2023-03-01T01:51:35;10.17;;;8.20;;
12328;SDS011;6230;52.390;10.256;2023-03-01T01:54:06;10.00;;;7.53;;
12328;SDS011;6230;52.390;10.256;2023-03-01T01:56:35;12.47;;;7.57;;
12328;SDS011;6230;52.390;10.256;2023-03-01T01:59:05;12.00;;;7.33;;
12328;SDS011;6230;52.390;10.256;2023-03-01T02:01:31;8.53;;;6.93;;
12328;SDS011;6230;52.390;10.256;2023-03-01T02:03:56;10.50;;;7.03;;
12328;SDS011;6230;52.390;10.256;2023-03-01T02:06:31;7.83;;;6.83;;
12328;SDS011;6230;52.390;10.256;2023-03-01T02:09:02;10.27;;;6.67;;
12328;SDS011;6230;52.390;10.256;2023-03-01T02:11:38;9.40;;;7.17;;
12328;SDS011;6230;52.390;10.256;2023-03-01T02:14:04;9.67;;;7.37;;
12328;SDS011;6230;52.390;10.256;2023-03-01T02:16:31;10.60;;;7.30;;
12328;SDS011;6230;52.390;10.256;2023-03-01T02:18:57;10.57;;;7.10;;
12328;SDS011;6230;52.390;10.256;2023-03-01T02:27:01;12.90;;;7.83;;
12328;SDS011;6230;52.390;10.256;2023-03-01T02:29:27;10.07;;;7.97;;
12328;SDS011;6230;52.390;10.256;2023-03-01T02:31:53;12.20;;;7.57;;
12328;SDS011;6230;52.390;10.256;2023-03-01T02:34:23;11.43;;;8.13;;
12328;SDS011;6230;52.390;10.256;2023-03-01T02:36:57;10.50;;;8.20;;
12328;SDS011;6230;52.390;10.256;2023-03-01T02:39:37;9.60;;;7.93;;
12328;SDS011;6230;52.390;10.256;2023-03-01T02:42:07;10.10;;;7.30;;
12328;SDS011;6230;52.390;10.256;2023-03-01T02:44:37;9.40;;;7.33;;
12328;SDS011;6230;52.390;10.256;2023-03-01T02:47:03;8.90;;;7.37;;
12328;SDS011;6230;52.390;10.256;2023-03-01T02:49:33;10.60;;;8.37;;
12328;SDS011;6230;52.390;10.256;2023-03-01T02:52:04;8.27;;;7.20;;
12328;SDS011;6230;52.390;10.256;2023-03-01T02:54:46;8.83;;;7.30;;
12328;SDS011;6230;52.390;10.256;2023-03-01T02:57:16;9.23;;;6.73;;
12328;SDS011;6230;52.390;10.256;2023-03-01T02:59:43;11.43;;;7.93;;
12328;SDS011;6230;52.390;10.256;2023-03-01T03:05:09;10.27;;;7.40;;
12328;SDS011;6230;52.390;10.256;2023-03-01T03:07:38;8.63;;;7.00;;
12328;SDS011;6230;52.390;10.256;2023-03-01T03:10:07;10.27;;;7.60;;
12328;SDS011;6230;52.390;10.256;2023-03-01T03:12:37;9.63;;;7.70;;
12328;SDS011;6230;52.390;10.256;2023-03-01T03:15:04;10.13;;;7.37;;
12328;SDS011;6230;52.390;10.256;2023-03-01T03:17:36;8.47;;;7.30;;
12328;SDS011;6230;52.390;10.256;2023-03-01T03:20:03;8.50;;;7.10;;
12328;SDS011;6230;52.390;10.256;2023-03-01T03:22:31;9.20;;;7.70;;
12328;SDS011;6230;52.390;10.256;2023-03-01T03:24:58;9.87;;;7.40;;
12328;SDS011;6230;52.390;10.256;2023-03-01T03:27:24;10.63;;;8.23;;
12328;SDS011;6230;52.390;10.256;2023-03-01T03:29:50;10.47;;;8.10;;
12328;SDS011;6230;52.390;10.256;2023-03-01T03:32:15;10.60;;;8.13;;
12328;SDS011;6230;52.390;10.256;2023-03-01T03:34:41;11.47;;;8.37;;
12328;SDS011;6230;52.390;10.256;2023-03-01T03:37:06;10.37;;;8.23;;
12328;SDS011;6230;52.390;10.256;2023-03-01T03:39:52;11.03;;;7.93;;
12328;SDS011;6230;52.390;10.256;2023-03-01T03:42:19;8.93;;;7.30;;
12328;SDS011;6230;52.390;10.256;2023-03-01T03:44:46;10.53;;;8.00;;
12328;SDS011;6230;52.390;10.256;2023-03-01T03:47:12;11.73;;;8.30;;
12328;SDS011;6230;52.390;10.256;2023-03-01T03:49:38;11.83;;;7.90;;
12328;SDS011;6230;52.390;10.256;2023-03-01T03:52:03;8.60;;;7.43;;
12328;SDS011;6230;52.390;10.256;2023-03-01T03:54:29;10.00;;;8.07;;
12328;SDS011;6230;52.390;10.256;2023-03-01T03:56:54;9.77;;;7.20;;
12328;SDS011;6230;52.390;10.256;2023-03-01T03:59:20;10.60;;;7.63;;
12328;SDS011;6230;52.390;10.256;2023-03-01T04:01:45;10.70;;;7.20;;
12328;SDS011;6230;52.390;10.256;2023-03-01T04:04:11;9.03;;;7.27;;
12328;SDS011;6230;52.390;10.256;2023-03-01T04:06:36;12.20;;;8.97;;
12328;SDS011;6230;52.390;10.256;2023-03-01T04:09:02;14.77;;;9.57;;
12328;SDS011;6230;52.390;10.256;2023-03-01T04:11:27;15.80;;;9.77;;
12328;SDS011;6230;52.390;10.256;2023-03-01T04:13:54;11.33;;;9.07;;
12328;SDS011;6230;52.390;10.256;2023-03-01T04:16:21;13.20;;;8.40;;
12328;SDS011;6230;52.390;10.256;2023-03-01T04:18:48;10.47;;;7.73;;
12328;SDS011;6230;52.390;10.256;2023-03-01T04:21:13;10.47;;;7.50;;
12328;SDS011;6230;52.390;10.256;2023-03-01T04:23:39;10.43;;;7.73;;
12328;SDS011;6230;52.390;10.256;2023-03-01T04:26:06;10.67;;;7.53;;
12328;SDS011;6230;52.390;10.256;2023-03-01T04:28:39;8.53;;;7.43;;
12328;SDS011;6230;52.390;10.256;2023-03-01T04:31:09;8.63;;;7.27;;
12328;SDS011;6230;52.390;10.256;2023-03-01T04:33:47;10.30;;;7.93;;
12328;SDS011;6230;52.390;10.256;2023-03-01T04:36:16;10.93;;;7.57;;
12328;SDS011;6230;52.390;10.256;2023-03-01T04:38:42;12.87;;;8.93;;
12328;SDS011;6230;52.390;10.256;2023-03-01T04:41:12;11.70;;;8.00;;
12328;SDS011;6230;52.390;10.256;2023-03-01T04:43:39;10.77;;;7.70;;
12328;SDS011;6230;52.390;10.256;2023-03-01T04:46:06;10.10;;;8.27;;
12328;SDS011;6230;52.390;10.256;2023-03-01T04:48:34;8.87;;;7.93;;
12328;SDS011;6230;52.390;10.256;2023-03-01T04:51:01;12.20;;;7.97;;
12328;SDS011;6230;52.390;10.256;2023-03-01T04:53:27;11.30;;;7.70;;
12328;SDS011;6230;52.390;10.256;2023-03-01T04:55:54;10.00;;;7.60;;
12328;SDS011;6230;52.390;10.256;2023-03-01T04:58:21;11.20;;;8.20;;
12328;SDS011;6230;52.390;10.256;2023-03-01T05:00:47;12.07;;;7.97;;
12328;SDS011;6230;52.390;10.256;2023-03-01T05:03:13;11.00;;;7.40;;
12328;SDS011;6230;52.390;10.256;2023-03-01T05:05:42;9.50;;;7.53;;
12328;SDS011;6230;52.390;10.256;2023-03-01T05:08:09;11.20;;;8.13;;
12328;SDS011;6230;52.390;10.256;2023-03-01T05:10:42;11.07;;;8.07;;
12328;SDS011;6230;52.390;10.256;2023-03-01T05:13:10;11.03;;;7.93;;
12328;SDS011;6230;52.390;10.256;2023-03-01T05:15:38;12.27;;;8.53;;
12328;SDS011;6230;52.390;10.256;2023-03-01T05:18:04;10.97;;;8.70;;
12328;SDS011;6230;52.390;10.256;2023-03-01T05:20:36;11.50;;;8.27;;
12328;SDS011;6230;52.390;10.256;2023-03-01T05:23:02;10.90;;;8.43;;
12328;SDS011;6230;52.390;10.256;2023-03-01T05:25:30;10.33;;;8.27;;
12328;SDS011;6230;52.390;10.256;2023-03-01T05:27:58;10.27;;;8.50;;
12328;SDS011;6230;52.390;10.256;2023-03-01T05:30:24;11.77;;;8.80;;
12328;SDS011;6230;52.390;10.256;2023-03-01T05:32:50;10.73;;;8.43;;
12328;SDS011;6230;52.390;10.256;2023-03-01T05:35:20;12.33;;;8.60;;
12328;SDS011;6230;52.390;10.256;2023-03-01T05:37:46;11.03;;;8.33;;
12328;SDS011;6230;52.390;10.256;2023-03-01T05:40:14;11.73;;;7.30;;
12328;SDS011;6230;52.390;10.256;2023-03-01T05:42:43;10.93;;;8.70;;
12328;SDS011;6230;52.390;10.256;2023-03-01T05:45:11;12.27;;;8.50;;
12328;SDS011;6230;52.390;10.256;2023-03-01T05:47:38;10.63;;;8.73;;
12328;SDS011;6230;52.390;10.256;2023-03-01T05:50:08;12.30;;;8.40;;
12328;SDS011;6230;52.390;10.256;2023-03-01T05:53:01;12.50;;;8.47;;
12328;SDS011;6230;52.390;10.256;2023-03-01T05:55:31;10.97;;;9.13;;
12328;SDS011;6230;52.390;10.256;2023-03-01T05:57:58;12.10;;;8.43;;
12328;SDS011;6230;52.390;10.256;2023-03-01T06:00:25;13.00;;;9.43;;
12328;SDS011;6230;52.390;10.256;2023-03-01T06:02:50;13.30;;;9.30;;
12328;SDS011;6230;52.390;10.256;2023-03-01T06:05:17;12.30;;;9.17;;
12328;SDS011;6230;52.390;10.256;2023-03-01T06:07:43;13.33;;;9.20;;
12328;SDS011;6230;52.390;10.256;2023-03-01T06:10:09;12.10;;;8.90;;
12328;SDS011;6230;52.390;10.256;2023-03-01T06:12:36;12.33;;;9.70;;
12328;SDS011;6230;52.390;10.256;2023-03-01T06:15:04;12.43;;;9.27;;
12328;SDS011;6230;52.390;10.256;2023-03-01T06:17:32;14.77;;;9.40;;
12328;SDS011;6230;52.390;10.256;2023-03-01T06:20:02;12.73;;;9.30;;
12328;SDS011;6230;52.390;10.256;2023-03-01T06:22:29;11.60;;;9.37;;
12328;SDS011;6230;52.390;10.256;2023-03-01T06:24:55;13.27;;;9.30;;
12328;SDS011;6230;52.390;10.256;2023-03-01T06:27:20;13.80;;;9.33;;
12328;SDS011;6230;52.390;10.256;2023-03-01T06:29:46;11.20;;;9.10;;
12328;SDS011;6230;52.390;10.256;2023-03-01T06:32:11;15.37;;;9.43;;
12328;SDS011;6230;52.390;10.256;2023-03-01T06:34:37;14.23;;;9.47;;
12328;SDS011;6230;52.390;10.256;2023-03-01T06:37:02;12.77;;;9.60;;
12328;SDS011;6230;52.390;10.256;2023-03-01T06:39:30;14.13;;;9.23;;
12328;SDS011;6230;52.390;10.256;2023-03-01T06:41:56;12.87;;;8.37;;
12328;SDS011;6230;52.390;10.256;2023-03-01T06:44:22;13.40;;;8.70;;
12328;SDS011;6230;52.390;10.256;2023-03-01T06:46:47;12.40;;;8.73;;
12328;SDS011;6230;52.390;10.256;2023-03-01T06:49:13;14.60;;;8.97;;
12328;SDS011;6230;52.390;10.256;2023-03-01T06:51:38;11.40;;;7.70;;
12328;SDS011;6230;52.390;10.256;2023-03-01T06:54:04;12.57;;;8.60;;
12328;SDS011;6230;52.390;10.256;2023-03-01T06:56:30;10.57;;;8.03;;
12328;SDS011;6230;52.390;10.256;2023-03-01T06:58:56;15.00;;;9.07;;
12328;SDS011;6230;52.390;10.256;2023-03-01T07:01:22;11.40;;;8.43;;
12328;SDS011;6230;52.390;10.256;2023-03-01T07:03:47;14.30;;;9.13;;
12328;SDS011;6230;52.390;10.256;2023-03-01T07:06:13;11.70;;;8.50;;
12328;SDS011;6230;52.390;10.256;2023-03-01T07:08:38;12.07;;;8.43;;
12328;SDS011;6230;52.390;10.256;2023-03-01T07:11:04;15.47;;;8.83;;
12328;SDS011;6230;52.390;10.256;2023-03-01T07:13:30;12.60;;;8.27;;
12328;SDS011;6230;52.390;10.256;2023-03-01T07:15:56;11.67;;;8.13;;
12328;SDS011;6230;52.390;10.256;2023-03-01T07:18:22;10.97;;;8.67;;
12328;SDS011;6230;52.390;10.256;2023-03-01T07:20:48;10.40;;;8.13;;
12328;SDS011;6230;52.390;10.256;2023-03-01T07:23:14;13.60;;;9.23;;
12328;SDS011;6230;52.390;10.256;2023-03-01T07:25:40;21.17;;;13.67;;
12328;SDS011;6230;52.390;10.256;2023-03-01T07:28:05;16.33;;;10.63;;
12328;SDS011;6230;52.390;10.256;2023-03-01T07:30:31;10.83;;;8.80;;
12328;SDS011;6230;52.390;10.256;2023-03-01T07:32:57;14.67;;;9.57;;
12328;SDS011;6230;52.390;10.256;2023-03-01T07:35:23;13.93;;;9.90;;
12328;SDS011;6230;52.390;10.256;2023-03-01T07:37:50;11.50;;;8.70;;
12328;SDS011;6230;52.390;10.256;2023-03-01T07:40:16;10.23;;;8.27;;
12328;SDS011;6230;52.390;10.256;2023-03-01T07:42:42;10.73;;;8.80;;
12328;SDS011;6230;52.390;10.256;2023-03-01T07:45:08;10.43;;;8.27;;
12328;SDS011;6230;52.390;10.256;2023-03-01T07:47:33;11.67;;;7.80;;
12328;SDS011;6230;52.390;10.256;2023-03-01T07:49:59;11.90;;;8.07;;
12328;SDS011;6230;52.390;10.256;2023-03-01T07:52:26;10.37;;;7.50;;
12328;SDS011;6230;52.390;10.256;2023-03-01T07:54:51;13.40;;;8.50;;
12328;SDS011;6230;52.390;10.256;2023-03-01T07:57:17;10.90;;;7.87;;
12328;SDS011;6230;52.390;10.256;2023-03-01T07:59:42;10.37;;;7.53;;
12328;SDS011;6230;52.390;10.256;2023-03-01T08:02:09;11.57;;;7.40;;
12328;SDS011;6230;52.390;10.256;2023-03-01T08:04:35;9.03;;;6.23;;
12328;SDS011;6230;52.390;10.256;2023-03-01T08:07:01;10.33;;;6.37;;
12328;SDS011;6230;52.390;10.256;2023-03-01T08:09:29;12.30;;;6.70;;
12328;SDS011;6230;52.390;10.256;2023-03-01T08:11:55;13.03;;;6.50;;
12328;SDS011;6230;52.390;10.256;2023-03-01T08:14:24;8.40;;;5.80;;
12328;SDS011;6230;52.390;10.256;2023-03-01T08:16:49;9.27;;;6.40;;
12328;SDS011;6230;52.390;10.256;2023-03-01T08:19:15;8.50;;;5.47;;
12328;SDS011;6230;52.390;10.256;2023-03-01T08:21:41;8.27;;;5.90;;
12328;SDS011;6230;52.390;10.256;2023-03-01T08:24:06;9.37;;;5.70;;
12328;SDS011;6230;52.390;10.256;2023-03-01T08:26:32;11.37;;;6.40;;
12328;SDS011;6230;52.390;10.256;2023-03-01T08:28:59;9.67;;;7.10;;
12328;SDS011;6230;52.390;10.256;2023-03-01T08:31:27;10.87;;;7.03;;
12328;SDS011;6230;52.390;10.256;2023-03-01T08:33:56;11.90;;;7.27;;
12328;SDS011;6230;52.390;10.256;2023-03-01T08:36:23;8.77;;;6.70;;
12328;SDS011;6230;52.390;10.256;2023-03-01T08:38:51;9.40;;;6.60;;
12328;SDS011;6230;52.390;10.256;2023-03-01T08:41:17;8.73;;;5.93;;
12328;SDS011;6230;52.390;10.256;2023-03-01T08:43:43;8.27;;;5.70;;
12328;SDS011;6230;52.390;10.256;2023-03-01T08:46:09;8.37;;;6.30;;
12328;SDS011;6230;52.390;10.256;2023-03-01T08:48:35;12.43;;;7.80;;
12328;SDS011;6230;52.390;10.256;2023-03-01T08:51:10;26.90;;;13.07;;
12328;SDS011;6230;52.390;10.256;2023-03-01T08:53:38;9.63;;;6.53;;
12328;SDS011;6230;52.390;10.256;2023-03-01T08:56:04;11.87;;;7.17;;
12328;SDS011;6230;52.390;10.256;2023-03-01T08:58:30;29.03;;;13.70;;
12328;SDS011;6230;52.390;10.256;2023-03-01T09:00:56;27.47;;;12.37;;
12328;SDS011;6230;52.390;10.256;2023-03-01T09:03:23;9.87;;;6.83;;
12328;SDS011;6230;52.390;10.256;2023-03-01T09:05:49;9.03;;;6.83;;
12328;SDS011;6230;52.390;10.256;2023-03-01T09:08:16;10.27;;;7.27;;
12328;SDS011;6230;52.390;10.256;2023-03-01T09:10:42;8.47;;;6.70;;
12328;SDS011;6230;52.390;10.256;2023-03-01T09:13:07;10.00;;;6.47;;
12328;SDS011;6230;52.390;10.256;2023-03-01T09:15:33;10.57;;;7.20;;
12328;SDS011;6230;52.390;10.256;2023-03-01T09:17:59;9.80;;;6.37;;
12328;SDS011;6230;52.390;10.256;2023-03-01T09:20:25;12.40;;;8.00;;
12328;SDS011;6230;52.390;10.256;2023-03-01T09:22:50;9.27;;;7.07;;
12328;SDS011;6230;52.390;10.256;2023-03-01T09:25:16;10.80;;;7.70;;
12328;SDS011;6230;52.390;10.256;2023-03-01T09:27:41;10.57;;;6.70;;
12328;SDS011;6230;52.390;10.256;2023-03-01T09:30:07;9.87;;;6.50;;
12328;SDS011;6230;52.390;10.256;2023-03-01T09:32:33;8.43;;;5.67;;
12328;SDS011;6230;52.390;10.256;2023-03-01T09:34:59;7.53;;;5.80;;
12328;SDS011;6230;52.390;10.256;2023-03-01T09:37:31;9.40;;;5.70;;
12328;SDS011;6230;52.390;10.256;2023-03-01T09:39:58;17.90;;;10.83;;
12328;SDS011;6230;52.390;10.256;2023-03-01T09:42:24;14.67;;;9.37;;
12328;SDS011;6230;52.390;10.256;2023-03-01T09:44:58;15.50;;;9.83;;
12328;SDS011;6230;52.390;10.256;2023-03-01T09:47:45;10.77;;;7.80;;
12328;SDS011;6230;52.390;10.256;2023-03-01T09:55:33;16.20;;;10.93;;
12328;SDS011;6230;52.390;10.256;2023-03-01T09:58:27;14.07;;;8.83;;
12328;SDS011;6230;52.390;10.256;2023-03-01T10:01:02;22.47;;;12.33;;
12328;SDS011;6230;52.390;10.256;2023-03-01T10:06:54;10.53;;;6.77;;
12328;SDS011;6230;52.390;10.256;2023-03-01T10:09:21;9.27;;;5.90;;
12328;SDS011;6230;52.390;10.256;2023-03-01T10:11:48;8.30;;;5.53;;
12328;SDS011;6230;52.390;10.256;2023-03-01T10:14:34;9.27;;;5.27;;
12328;SDS011;6230;52.390;10.256;2023-03-01T10:20:25;7.63;;;5.27;;
12328;SDS011;6230;52.390;10.256;2023-03-01T10:23:01;9.13;;;5.57;;
12328;SDS011;6230;52.390;10.256;2023-03-01T10:25:38;6.13;;;4.47;;
12328;SDS011;6230;52.390;10.256;2023-03-01T10:31:20;7.90;;;5.03;;
12328;SDS011;6230;52.390;10.256;2023-03-01T10:33:53;5.27;;;4.67;;
12328;SDS011;6230;52.390;10.256;2023-03-01T10:36:20;5.33;;;4.03;;
12328;SDS011;6230;52.390;10.256;2023-03-01T10:38:51;6.70;;;4.70;;
12328;SDS011;6230;52.390;10.256;2023-03-01T10:41:22;5.20;;;4.50;;
12328;SDS011;6230;52.390;10.256;2023-03-01T10:43:53;6.30;;;4.33;;
12328;SDS011;6230;52.390;10.256;2023-03-01T10:46:28;5.53;;;4.50;;
12328;SDS011;6230;52.390;10.256;2023-03-01T10:51:45;5.10;;;4.27;;
12328;SDS011;6230;52.390;10.256;2023-03-01T10:54:23;7.37;;;4.00;;
12328;SDS011;6230;52.390;10.256;2023-03-01T10:56:54;4.87;;;3.90;;
12328;SDS011;6230;52.390;10.256;2023-03-01T10:59:29;4.80;;;3.97;;
12328;SDS011;6230;52.390;10.256;2023-03-01T11:02:04;5.10;;;3.90;;
12328;SDS011;6230;52.390;10.256;2023-03-01T11:04:35;6.83;;;4.37;;
12328;SDS011;6230;52.390;10.256;2023-03-01T11:07:01;5.63;;;4.20;;
12328;SDS011;6230;52.390;10.256;2023-03-01T11:09:30;5.27;;;4.20;;
12328;SDS011;6230;52.390;10.256;2023-03-01T11:12:02;5.03;;;3.90;;
12328;SDS011;6230;52.390;10.256;2023-03-01T11:14:35;5.97;;;4.30;;
12328;SDS011;6230;52.390;10.256;2023-03-01T11:17:21;24.43;;;16.27;;
12328;SDS011;6230;52.390;10.256;2023-03-01T11:20:04;8.70;;;5.70;;
12328;SDS011;6230;52.390;10.256;2023-03-01T11:22:53;6.30;;;4.47;;
12328;SDS011;6230;52.390;10.256;2023-03-01T11:25:22;5.17;;;3.80;;
12328;SDS011;6230;52.390;10.256;2023-03-01T11:27:53;33.57;;;22.63;;
12328;SDS011;6230;52.390;10.256;2023-03-01T11:30:28;6.27;;;4.80;;
12328;SDS011;6230;52.390;10.256;2023-03-01T11:35:45;7.87;;;5.30;;
12328;SDS011;6230;52.390;10.256;2023-03-01T11:38:21;5.30;;;4.53;;
12328;SDS011;6230;52.390;10.256;2023-03-01T11:57:33;4.70;;;3.90;;
12328;SDS011;6230;52.390;10.256;2023-03-01T12:05:38;14.63;;;11.83;;
12328;SDS011;6230;52.390;10.256;2023-03-01T12:08:13;5.57;;;4.97;;
12328;SDS011;6230;52.390;10.256;2023-03-01T12:10:52;5.33;;;4.33;;
12328;SDS011;6230;52.390;10.256;2023-03-01T12:22:23;5.63;;;3.60;;
12328;SDS011;6230;52.390;10.256;2023-03-01T12:25:04;4.40;;;3.70;;
12328;SDS011;6230;52.390;10.256;2023-03-01T12:27:48;3.60;;;3.20;;
12328;SDS011;6230;52.390;10.256;2023-03-01T12:33:33;4.78;;;3.65;;
12328;SDS011;6230;52.390;10.256;2023-03-01T12:36:26;5.10;;;3.10;;
12328;SDS011;6230;52.390;10.256;2023-03-01T12:41:35;3.85;;;3.25;;
12328;SDS011;6230;52.390;10.256;2023-03-01T12:50:19;7.77;;;6.90;;
12328;SDS011;6230;52.390;10.256;2023-03-01T12:52:55;4.33;;;3.40;;
12328;SDS011;6230;52.390;10.256;2023-03-01T12:55:27;8.60;;;5.47;;
12328;SDS011;6230;52.390;10.256;2023-03-01T12:58:04;3.80;;;3.15;;
12328;SDS011;6230;52.390;10.256;2023-03-01T13:04:15;5.13;;;3.30;;
12328;SDS011;6230;52.390;10.256;2023-03-01T13:17:47;7.05;;;2.78;;
12328;SDS011;6230;52.390;10.256;2023-03-01T13:20:15;3.92;;;2.53;;
12328;SDS011;6230;52.390;10.256;2023-03-01T13:22:45;4.35;;;2.92;;
12328;SDS011;6230;52.390;10.256;2023-03-01T13:25:14;4.95;;;3.15;;
12328;SDS011;6230;52.390;10.256;2023-03-01T13:27:44;6.38;;;3.60;;
12328;SDS011;6230;52.390;10.256;2023-03-01T13:30:37;4.85;;;4.10;;
12328;SDS011;6230;52.390;10.256;2023-03-01T13:35:58;4.63;;;2.83;;
12328;SDS011;6230;52.390;10.256;2023-03-01T13:47:36;3.40;;;2.92;;
12328;SDS011;6230;52.390;10.256;2023-03-01T13:52:23;3.80;;;3.22;;
12328;SDS011;6230;52.390;10.256;2023-03-01T13:55:21;4.25;;;3.17;;
12328;SDS011;6230;52.390;10.256;2023-03-01T13:57:51;13.98;;;8.30;;
12328;SDS011;6230;52.390;10.256;2023-03-01T14:02:59;4.63;;;2.90;;
12328;SDS011;6230;52.390;10.256;2023-03-01T14:05:29;3.67;;;3.00;;
12328;SDS011;6230;52.390;10.256;2023-03-01T14:07:56;4.82;;;3.10;;
12328;SDS011;6230;52.390;10.256;2023-03-01T14:10:21;3.00;;;2.72;;
12328;SDS011;6230;52.390;10.256;2023-03-01T14:13:39;3.35;;;2.67;;
12328;SDS011;6230;52.390;10.256;2023-03-01T14:18:45;3.47;;;2.90;;
12328;SDS011;6230;52.390;10.256;2023-03-01T14:21:21;3.58;;;2.40;;
12328;SDS011;6230;52.390;10.256;2023-03-01T14:23:47;4.65;;;2.67;;
12328;SDS011;6230;52.390;10.256;2023-03-01T14:26:13;4.03;;;2.58;;
12328;SDS011;6230;52.390;10.256;2023-03-01T14:28:46;3.55;;;2.60;;
12328;SDS011;6230;52.390;10.256;2023-03-01T14:31:32;3.33;;;2.85;;
12328;SDS011;6230;52.390;10.256;2023-03-01T14:34:01;3.28;;;2.97;;
12328;SDS011;6230;52.390;10.256;2023-03-01T14:36:28;2.80;;;2.30;;
12328;SDS011;6230;52.390;10.256;2023-03-01T14:38:55;2.55;;;2.35;;
12328;SDS011;6230;52.390;10.256;2023-03-01T14:41:25;2.95;;;2.60;;
12328;SDS011;6230;52.390;10.256;2023-03-01T14:43:55;2.90;;;2.47;;
12328;SDS011;6230;52.390;10.256;2023-03-01T14:46:38;3.33;;;2.47;;
12328;SDS011;6230;52.390;10.256;2023-03-01T14:49:21;2.92;;;2.22;;
12328;SDS011;6230;52.390;10.256;2023-03-01T14:51:53;3.17;;;2.53;;
12328;SDS011;6230;52.390;10.256;2023-03-01T14:54:25;4.82;;;3.08;;
12328;SDS011;6230;52.390;10.256;2023-03-01T14:57:12;3.93;;;2.63;;
12328;SDS011;6230;52.390;10.256;2023-03-01T14:59:40;6.47;;;3.43;;
12328;SDS011;6230;52.390;10.256;2023-03-01T15:02:13;3.50;;;2.37;;
12328;SDS011;6230;52.390;10.256;2023-03-01T15:04:48;3.27;;;2.40;;
12328;SDS011;6230;52.390;10.256;2023-03-01T15:07:16;3.33;;;2.43;;
12328;SDS011;6230;52.390;10.256;2023-03-01T15:09:42;2.97;;;2.60;;
12328;SDS011;6230;52.390;10.256;2023-03-01T15:14:53;8.60;;;3.43;;
12328;SDS011;6230;52.390;10.256;2023-03-01T15:17:28;5.70;;;2.83;;
12328;SDS011;6230;52.390;10.256;2023-03-01T15:20:01;3.83;;;2.93;;
12328;SDS011;6230;52.390;10.256;2023-03-01T15:22:29;3.77;;;3.07;;
12328;SDS011;6230;52.390;10.256;2023-03-01T15:24:55;6.03;;;3.97;;
12328;SDS011;6230;52.390;10.256;2023-03-01T15:27:24;4.03;;;3.13;;
12328;SDS011;6230;52.390;10.256;2023-03-01T15:35:00;3.83;;;3.47;;
12328;SDS011;6230;52.390;10.256;2023-03-01T15:37:49;6.70;;;5.23;;
12328;SDS011;6230;52.390;10.256;2023-03-01T15:40:22;26.07;;;15.43;;
12328;SDS011;6230;52.390;10.256;2023-03-01T15:42:49;13.10;;;8.07;;
12328;SDS011;6230;52.390;10.256;2023-03-01T15:47:46;6.33;;;4.47;;
12328;SDS011;6230;52.390;10.256;2023-03-01T15:50:29;4.60;;;3.30;;
12328;SDS011;6230;52.390;10.256;2023-03-01T15:52:58;5.23;;;3.87;;
12328;SDS011;6230;52.390;10.256;2023-03-01T15:55:29;4.20;;;3.40;;
12328;SDS011;6230;52.390;10.256;2023-03-01T15:58:03;5.10;;;3.50;;
12328;SDS011;6230;52.390;10.256;2023-03-01T16:00:40;3.50;;;3.20;;
12328;SDS011;6230;52.390;10.256;2023-03-01T16:03:08;3.00;;;2.67;;
12328;SDS011;6230;52.390;10.256;2023-03-01T16:05:36;3.47;;;3.07;;
12328;SDS011;6230;52.390;10.256;2023-03-01T16:08:03;4.20;;;3.00;;
12328;SDS011;6230;52.390;10.256;2023-03-01T16:10:30;4.10;;;3.10;;
12328;SDS011;6230;52.390;10.256;2023-03-01T16:12:57;3.63;;;3.23;;
12328;SDS011;6230;52.390;10.256;2023-03-01T16:15:25;4.20;;;3.00;;
12328;SDS011;6230;52.390;10.256;2023-03-01T16:17:53;3.60;;;2.83;;
12328;SDS011;6230;52.390;10.256;2023-03-01T16:20:19;4.03;;;2.90;;
12328;SDS011;6230;52.390;10.256;2023-03-01T16:22:45;5.87;;;3.40;;
12328;SDS011;6230;52.390;10.256;2023-03-01T16:25:12;3.73;;;2.77;;
12328;SDS011;6230;52.390;10.256;2023-03-01T16:27:41;3.90;;;2.73;;
12328;SDS011;6230;52.390;10.256;2023-03-01T16:30:09;3.77;;;2.73;;
12328;SDS011;6230;52.390;10.256;2023-03-01T16:32:38;4.70;;;2.97;;
12328;SDS011;6230;52.390;10.256;2023-03-01T16:35:05;4.37;;;3.40;;
12328;SDS011;6230;52.390;10.256;2023-03-01T16:37:32;4.03;;;3.00;;
12328;SDS011;6230;52.390;10.256;2023-03-01T16:39:58;4.33;;;3.53;;
12328;SDS011;6230;52.390;10.256;2023-03-01T16:42:24;5.03;;;2.97;;
12328;SDS011;6230;52.390;10.256;2023-03-01T16:44:56;4.17;;;3.03;;
12328;SDS011;6230;52.390;10.256;2023-03-01T16:47:21;4.03;;;3.00;;
12328;SDS011;6230;52.390;10.256;2023-03-01T16:49:47;3.00;;;2.70;;
12328;SDS011;6230;52.390;10.256;2023-03-01T16:52:16;4.37;;;3.07;;